Metar Cercanos

 

LEPA - Palma De Mallorc, Spain
Distance from station: ONO 38km
Actualización: 18/12/2017 19:30
Parcialmente nuboso
Parcialmente nuboso
 Viento del NO
Viento: NO 11 km/h
Temperatura: 12°C
Rocío: 5°C
Humedad: 63%
Barómetro: 1023 hPa
Clouds: Parcialmente nuboso
Visibility: 10 km
Cloud details: Few Clouds 701 m
Parcialmente nuboso 975 m
2017/12/18 18:30 LEPA 181830Z 31006KT 9999 FEW023 SCT032 12/05 Q1023 NOSIG
LEMH - Mahon/Menorca Is, Spain
Distance from station: ENE 105km
Actualización: 18/12/2017 19:30
Lluvia, Parcialmente nuboso
Lluvia, Parcialmente nuboso
 Viento del NO
Viento: NO 11 km/h
Temperatura: 8°C
Sensación frio: 6°C
Rocío: 8°C
Humedad: 100%
Barómetro: 1023 hPa
Resumen: Lluvia
Clouds: Parcialmente nuboso
Visibility: 9 km
Cloud details: Parcialmente nuboso 914 m
Parcialmente nuboso 1372 m
2017/12/18 18:30 LEMH 181830Z 32006KT 280V360 9000 RA SCT030 SCT045 08/08 Q1023
 
LEIB - Ibiza/Es Codola, Spain
Distance from station: OSO 165km
Actualización: 18/12/2017 19:30
Few Clouds
Few Clouds
 Viento del SO
Viento: SO 30 km/h
Temperatura: 13°C
Rocío: 3°C
Humedad: 51%
Barómetro: 1023 hPa
Clouds: Few Clouds
Visibility: 10 km
Cloud details: Few Clouds 1219 m
2017/12/18 18:30 LEIB 181830Z 23016KT 9999 FEW040 13/03 Q1023 NOSIG
LEBL - Barcelona Airpor, Spain
Distance from station: NNO 225km
Actualización: 18/12/2017 19:30
Few Clouds
Few Clouds
 Viento del N
Viento: N 6 km/h
Temperatura: 9°C
Rocío: 2°C
Humedad: 62%
Barómetro: 1022 hPa
Clouds: Few Clouds
Visibility: 10 km
Cloud details: Few Clouds 1219 m
2017/12/18 18:30 LEBL 181830Z 35003KT 9999 FEW040 09/02 Q1022 NOSIG
 
LEVC - Valencia (civ/Mi, Spain
Distance from station: NO 188km
Actualización: 18/12/2017 19:30
Despejado
Despejado
 Viento del O
Viento: O 19 km/h
Temperatura: 13°C
Rocío: 2°C
Humedad: 47%
Barómetro: 1022 hPa
Resumen: Despejado
Visibility: greater than 10 km
2017/12/18 18:30 LEVC 181830Z 26010KT CAVOK 13/02 Q1022 NOSIG
LEGE - Gerona/Costa Bra, Spain
Distance from station: N 276km
Actualización: 18/12/2017 19:30
Lluvia débil, Muy nuboso
Lluvia débil, Muy nuboso
 Viento del NNE
Viento: NNE 2 km/h
Temperatura: 4°C
Rocío: 3°C
Humedad: 93%
Barómetro: 1022 hPa
Resumen: Lluvia débil
Clouds: Muy nuboso
Visibility: 10 km
Cloud details: Few Clouds 1067 m
Parcialmente nuboso 1219 m
Muy nuboso 1524 m
2017/12/18 18:30 LEGE 181830Z 03001KT 9999 -RA FEW035 SCT040 BKN050 04/03 Q1022
 
LEAL - Alicante/El Alte, Spain
Distance from station: OSO 344km
Actualización: 18/12/2017 19:30
Despejado
Despejado
 Viento del OSO
Viento: OSO 11 km/h
Temperatura: 10°C
Sensación frio: 8°C
Rocío: 1°C
Humedad: 54%
Barómetro: 1024 hPa
Resumen: Despejado
Visibility: greater than 10 km
2017/12/18 18:30 LEAL 181830Z 24006KT CAVOK 10/01 Q1024 NOSIG
LEAM - Almeria Airport, Spain
Distance from station: SSO 56km
Actualización: 18/12/2017 19:30
Despejado
Despejado
 Viento del OSO
Viento: OSO 15 km/h
Temperatura: 12°C
Rocío: 5°C
Humedad: 63%
Barómetro: 1026 hPa
Resumen: Despejado
Visibility: greater than 10 km
2017/12/18 18:30 LEAM 181830Z 25008KT CAVOK 12/05 Q1026
 
LEZG - Zaragoza (mil/Ci, Spain
Distance from station: NO 431km
Actualización: 18/12/2017 19:30
Few Clouds
Few Clouds
 Viento del ONO
Viento: ONO 30 km/h
Temperatura: 11°C
Rocío: 6°C
Humedad: 72%
Barómetro: 1024 hPa
Clouds: Few Clouds
Visibility: 10 km
Cloud details: Few Clouds 1219 m
2017/12/18 18:30 LEZG 181830Z 30016KT 9999 FEW040 11/06 Q1024
LEMD - Madrid/Barajas, Spain
Distance from station: ONO 234km
Actualización: 18/12/2017 19:30
Parcialmente nuboso
Parcialmente nuboso
 Viento del S
Viento: S 6 km/h
Temperatura: 9°C
Rocío: 0°C
Humedad: 54%
Barómetro: 1028 hPa
Clouds: Parcialmente nuboso
Visibility: 10 km
Cloud details: Parcialmente nuboso 1768 m
2017/12/18 18:30 LEMD 181830Z 17003KT 130V240 9999 SCT058 09/00 Q1028 NOSIG
 
LEGR - Granada Airport, Spain
Distance from station: OSO 62km
Actualización: 18/12/2017 19:30
Despejado
Despejado
 Viento del calm
Viento: Calma
Temperatura: 5°C
Rocío: 1°C
Humedad: 76%
Barómetro: 1027 hPa
Resumen: Despejado
Visibility: greater than 10 km
2017/12/18 18:30 LEGR 181830Z 00000KT CAVOK 05/01 Q1027
LEMG - Malaga (civ/Mil), Spain
Distance from station: OSO 227km
Actualización: 18/12/2017 19:30
Few Clouds
Few Clouds
 Viento del SSO
Viento: SSO 4 km/h
Temperatura: 12°C
Rocío: 8°C
Humedad: 77%
Barómetro: 1028 hPa
Clouds: Few Clouds
Visibility: 10 km
Cloud details: Few Clouds 762 m
2017/12/18 18:30 LEMG 181830Z 20002KT 9999 FEW025 12/08 Q1028 NOSIG
 
LEZL - Sevilla (civ/Mil, Spain
Distance from station: S 318km
Actualización: 18/12/2017 19:30
Despejado
Despejado
 Viento del calm
Viento: Calma
Temperatura: 11°C
Rocío: 4°C
Humedad: 62%
Barómetro: 1028 hPa
Resumen: Despejado
Visibility: greater than 10 km
2017/12/18 18:30 LEZL 181830Z 00000KT CAVOK 11/04 Q1028 NOSIG
LEVT - Vitoria, Spain
Distance from station: NO 226km
Actualización: 18/12/2017 19:30
Lluvia débil, Muy nuboso
Lluvia débil, Muy nuboso
 Viento del ONO
Viento: ONO 26 km/h
Temperatura: 9°C
Sensación frio: 6°C
Rocío: 8°C
Humedad: 94%
Barómetro: 1028 hPa
Resumen: Lluvia débil
Clouds: Muy nuboso
Visibility: 7 km
Cloud details: Few Clouds 305 m
Muy nuboso 2134 m
2017/12/18 18:30 LEVT 181830Z 30014KT 7000 -RA FEW010 BKN070 09/08 Q1028
 
LEBB - Bilbao/Sondica, Spain
Distance from station: NNO 235km
Actualización: 18/12/2017 19:30
Lluvia débil, Muy nuboso
Lluvia débil, Muy nuboso
 Viento del NO
Viento: NO 24 km/h
Temperatura: 13°C
Rocío: 12°C
Humedad: 94%
Barómetro: 1029 hPa
Resumen: Lluvia débil
Clouds: Muy nuboso
Visibility: 9 km
Cloud details: Few Clouds 213 m
Parcialmente nuboso 305 m
Muy nuboso 457 m
2017/12/18 18:30 LEBB 181830Z 31013KT 9000 -RA FEW007 SCT010 BKN015 13/12 Q1029 TEMPO 2500 RA BKN010
LESO - San Sebastian/Fu, Spain
Distance from station: N 231km
Actualización: 18/12/2017 19:30
Lluvia débil, Cubierto
Lluvia débil, Cubierto
 Viento del N
Viento: N 19 km/h, Racha: 37 km/h
Temperatura: 13°C
Rocío: 12°C
Humedad: 94%
Barómetro: 1028 hPa
Resumen: Lluvia débil
Clouds: Cubierto
Visibility: 10 km
Cloud details: Parcialmente nuboso 244 m
Muy nuboso 335 m
Cubierto 488 m
2017/12/18 18:30 LESO 181830Z 35010G20KT 300V050 9999 -RA SCT008 BKN011 OVC016 13/12 Q1028
 
LEVD - Valladolid(Mil/C, Spain
Distance from station: ONO 239km
Actualización: 18/12/2017 19:30
Parcialmente nuboso
Parcialmente nuboso
 Viento del O
Viento: O 11 km/h
Temperatura: 4°C
Sensación frio: 1°C
Rocío: 0°C
Humedad: 75%
Barómetro: 1030 hPa
Clouds: Parcialmente nuboso
Visibility: 10 km
Cloud details: Parcialmente nuboso 1006 m
2017/12/18 18:30 LEVD 181830Z 26006KT 9999 SCT033 04/00 Q1030
LESA - Salamanca (civ/M, Spain
Distance from station: ONO 349km
Actualización: 18/12/2017 19:30
Parcialmente nuboso
Parcialmente nuboso
 Viento del calm
Viento: Calma
Temperatura: 4°C
Rocío: 0°C
Humedad: 75%
Barómetro: 1030 hPa
Clouds: Parcialmente nuboso
Visibility: 10 km
Cloud details: Parcialmente nuboso 1280 m
2017/12/18 18:30 LESA 181830Z 00000KT 9999 SCT042 04/00 Q1030
 
LEXJ - Santander/Paraya, Spain
Distance from station: NNO 247km
Actualización: 18/12/2017 19:30
Drizzle, Mist, Cubierto
Drizzle, Mist, Cubierto
 Viento del ONO
Viento: ONO 28 km/h
Temperatura: 13°C
Rocío: 12°C
Humedad: 94%
Barómetro: 1030 hPa
Resumen: Drizzle, Mist
Clouds: Cubierto
Visibility: 3 km
Cloud details: Muy nuboso 244 m
Cubierto 427 m
2017/12/18 18:30 LEXJ 181830Z 29015KT 3000 DZ BR BKN008 OVC014 13/12 Q1030
LEAS - Asturias/Aviles, Spain
Distance from station: NO 214km
Actualización: 18/12/2017 19:30
Lluvia débil, Cubierto
Lluvia débil, Cubierto
 Viento del O
Viento: O 13 km/h
Temperatura: 11°C
Rocío: 11°C
Humedad: 100%
Barómetro: 1032 hPa
Resumen: Lluvia débil
Clouds: Cubierto
Visibility: 3 km
Cloud details: Muy nuboso 91 m
Cubierto 152 m
2017/12/18 18:30 LEAS 181830Z 28007KT 2500 0900NW R29/2000N R11/0650N -RA BKN003 OVC005 11/11 Q1032 TEMPO 0800 -RA BCFG
 
LECO - La Coruna/Alvedr, Spain
Distance from station: ONO 222km
Actualización: 18/12/2017 19:30
Mist, Cubierto
Mist, Cubierto
 Viento del calm
Viento: Calma
Temperatura: 11°C
Rocío: 10°C
Humedad: 94%
Barómetro: 1033 hPa
Resumen: Mist
Clouds: Cubierto
Visibility: 3 km
Cloud details: Cubierto 244 m
2017/12/18 18:30 LECO 181830Z 00000KT 3000 BR OVC008 11/10 Q1033 TEMPO 6000 NSW
LEVX - Vigo/Peinador, Spain
Distance from station: O 214km
Actualización: 18/12/2017 19:30
Nearby fog, Parcialmente nuboso
Nearby fog, Parcialmente nuboso
 Viento del N
Viento: N 6 km/h
Temperatura: 10°C
Rocío: 8°C
Humedad: 88%
Barómetro: 1033 hPa
Resumen: Nearby Fog
Clouds: Parcialmente nuboso
Visibility: 10 km
2017/12/18 18:30 LEVX 181830Z 01003KT 310V040 9999 VCFG NSC 10/08 Q1033 NOSIG